Flight Track Log - Related Links

Times and Time Zones

All times are in EDT time to prevent confusion due to time zone crossing. See the N913FD flight status page for this flight to view local times or setup timezone preferences in your user account.

Time Position Orientation Groundspeed Altitude Reporting Facility
EDT Latitude Longitude Course Direction KTS MPH feet Rate Location/Type
Thu 04:25:59 AM 35.0167 -89.9667 165° South 176 203 1,400  Level KMEM
Thu 04:27:05 AM 34.9667 -89.9500 165° South 231 266 3,600 2,571 Climbing KMEM
Thu 04:28:05 AM 34.9167 -89.8833 132° Southeast 288 331 6,800 3,048 Climbing KMEM
Thu 04:29:11 AM 34.9500 -89.8000 64° Northeast 304 350 10,000 2,341 Climbing KMEM
Thu 04:30:08 AM 34.9889 -89.7108 62° Northeast 343 395 11,600 1,744 Climbing Memphis Center
Thu 04:31:08 AM 35.0383 -89.5989 62° Northeast 361 415 13,400 2,300 Climbing Memphis Center
Thu 04:32:08 AM 35.0897 -89.4764 63° Northeast 385 443 16,200 2,479 Climbing Memphis Center
Thu 04:33:09 AM 35.1472 -89.3514 61° Northeast 404 465 18,400 2,050 Climbing Memphis Center
Thu 04:34:08 AM 35.2086 -89.2108 62° Northeast 417 480 20,300 1,966 Climbing Memphis Center
Thu 04:35:08 AM 35.2656 -89.0728 63° Northeast 436 502 22,300 1,900 Climbing Memphis Center
Thu 04:36:08 AM 35.3203 -88.9244 66° East 457 526 24,100 1,750 Climbing Memphis Center
Thu 04:37:08 AM 35.3747 -88.7758 66° East 473 544 25,800 1,600 Climbing Memphis Center
Thu 04:38:08 AM 35.4250 -88.6397 66° East 478 550 27,300 1,697 Climbing Memphis Center
Thu 04:43:37 AM 35.7420 -87.7890 66° East 478 550 36,800 1,652 Climbing FlightAware ADS-B
Thu 04:44:22 AM 35.7820 -87.6770 66° East 477 549 37,600 1,059 Climbing FlightAware ADS-B
Thu 04:45:02 AM 35.8190 -87.5750 66° East 474 545 38,300 1,050 Climbing FlightAware ADS-B
Thu 04:45:42 AM 35.8540 -87.4800 66° East 471 542 39,000 494 Climbing FlightAware ADS-B
Thu 04:46:27 AM 35.8930 -87.3720 66° East 466 536 39,000  Level FlightAware ADS-B
Thu 04:47:07 AM 35.9270 -87.2750 67° East 465 535 39,000  Level FlightAware ADS-B
Thu 04:47:43 AM 35.9614 -87.1804 66° East 468 539 39,000  Level FlightAware ADS-B
Thu 04:48:15 AM 35.9893 -87.1018 66° East 473 544 39,000  Level FlightAware ADS-B
Thu 04:48:45 AM 36.0158 -87.0275 66° East 474 545 39,000  Level FlightAware ADS-B
Thu 04:49:22 AM 36.0481 -86.9381 66° East 476 548 39,000  Level FlightAware ADS-B
Thu 04:49:53 AM 36.0762 -86.8585 66° East 477 549 39,000  Level FlightAware ADS-B
Thu 04:50:37 AM 36.1120 -86.7560 67° East 479 551 39,000  Level FlightAware ADS-B
Thu 04:50:56 AM 36.1320 -86.7002 66° East 480 552 39,000  Level FlightAware ADS-B
Thu 04:51:32 AM 36.1625 -86.6085 68° East 482 555 39,000  Level FlightAware ADS-B
Thu 04:52:02 AM 36.1860 -86.5340 69° East 482 555 39,000  Level FlightAware ADS-B
Thu 04:52:07 AM 36.1910 -86.5187 68° East 482 555 39,000  Level FlightAware ADS-B
Thu 04:52:40 AM 36.2180 -86.4341 68° East 482 555 39,000  Level FlightAware ADS-B
Thu 04:53:10 AM 36.2428 -86.3572 68° East 483 556 39,000  Level FlightAware ADS-B
Thu 04:53:43 AM 36.2706 -86.2722 68° East 485 558 39,000  Level FlightAware ADS-B
Thu 04:54:52 AM 36.3270 -86.0960 68° East 487 560 39,000  Level FlightAware ADS-B
Thu 04:54:59 AM 36.3336 -86.0755 68° East 488 562 39,000  Level FlightAware ADS-B
Thu 04:55:31 AM 36.3598 -85.9923 69° East 488 562 39,000  Level FlightAware ADS-B
Thu 04:56:03 AM 36.3865 -85.9091 68° East 489 563 39,000  Level FlightAware ADS-B
Thu 04:56:34 AM 36.4116 -85.8307 68° East 489 563 39,000  Level FlightAware ADS-B
Thu 04:57:05 AM 36.4372 -85.7501 68° East 489 563 39,000  Level FlightAware ADS-B
Thu 04:57:37 AM 36.4630 -85.6690 68° East 489 563 39,000  Level FlightAware ADS-B
Thu 04:57:47 AM 36.4723 -85.6377 70° East 489 563 39,000  Level FlightAware ADS-B
Thu 04:58:18 AM 36.4973 -85.5564 69° East 489 563 39,000  Level FlightAware ADS-B
Thu 04:58:48 AM 36.5219 -85.4780 69° East 489 563 39,000  Level FlightAware ADS-B
Thu 04:59:18 AM 36.5466 -85.3996 69° East 489 563 39,000  Level FlightAware ADS-B
Thu 05:00:04 AM 36.5836 -85.2821 69° East 486 559 39,000  Level FlightAware ADS-B
Thu 05:00:34 AM 36.6078 -85.2040 69° East 486 559 39,000  Level FlightAware ADS-B
Thu 05:01:04 AM 36.6325 -85.1231 69° East 486 559 39,000  Level FlightAware ADS-B
Thu 05:01:37 AM 36.6587 -85.0372 69° East 485 558 39,000  Level FlightAware ADS-B
Thu 05:02:09 AM 36.6840 -84.9564 69° East 485 558 39,000  Level FlightAware ADS-B
Thu 05:02:39 AM 36.7082 -84.8757 69° East 485 558 39,000  Level FlightAware ADS-B
Thu 05:03:13 AM 36.7355 -84.7870 69° East 483 556 39,000  Level FlightAware ADS-B
Thu 05:03:47 AM 36.7623 -84.6985 69° East 484 557 39,000  Level FlightAware ADS-B
Thu 05:04:20 AM 36.7885 -84.6124 69° East 485 558 39,000  Level FlightAware ADS-B
Thu 05:04:51 AM 36.8126 -84.5338 69° East 486 559 39,000  Level FlightAware ADS-B
Thu 05:05:21 AM 36.8369 -84.4525 70° East 487 560 39,000  Level FlightAware ADS-B
Thu 05:05:51 AM 36.8608 -84.3736 69° East 488 562 39,000  Level FlightAware ADS-B
Thu 05:06:22 AM 36.8850 -84.2917 70° East 490 564 39,000  Level FlightAware ADS-B
Thu 05:06:52 AM 36.9089 -84.2121 69° East 491 565 39,000  Level FlightAware ADS-B
Thu 05:07:22 AM 36.9326 -84.1322 70° East 493 567 39,000  Level FlightAware ADS-B
Thu 05:07:53 AM 36.9570 -84.0496 70° East 494 568 39,000  Level FlightAware ADS-B
Thu 05:08:26 AM 36.9829 -83.9640 69° East 495 570 39,000  Level FlightAware ADS-B
Thu 05:09:01 AM 37.0107 -83.8702 70° East 493 567 39,000  Level FlightAware ADS-B
Thu 05:09:31 AM 37.0346 -83.7872 70° East 493 567 39,000  Level FlightAware ADS-B
Thu 05:10:02 AM 37.0591 -83.7044 70° East 494 568 39,000  Level FlightAware ADS-B
Thu 05:10:41 AM 37.0896 -83.5997 70° East 494 568 39,000  Level FlightAware ADS-B
Thu 05:11:11 AM 37.1131 -83.5194 70° East 492 566 39,000  Level FlightAware ADS-B
Thu 05:14:36 AM 37.2494 -82.9667 73° East 489 563 39,000  Level FlightAware ADS-B
Thu 05:15:29 AM 37.2719 -82.8411 73° East 487 560 39,000  Level Indianapolis Center
Thu 05:16:30 AM 37.3008 -82.6739 78° East 485 558 39,000  Level Indianapolis Center
Thu 05:17:31 AM 37.3319 -82.5047 77° East 494 568 39,000  Level Indianapolis Center
Thu 05:23:32 AM 37.5090 -81.4730 77° East 493 567 39,000  Level FlightAware ADS-B
Thu 05:24:17 AM 37.5290 -81.3490 78° East 496 571 39,000  Level FlightAware ADS-B
Thu 05:25:12 AM 37.5530 -81.2070 78° East 497 572 39,000  Level FlightAware ADS-B
Thu 05:25:52 AM 37.5690 -81.1100 78° East 497 572 39,000  Level FlightAware ADS-B
Thu 05:26:32 AM 37.5860 -81.0140 77° East 497 572 39,000  Level FlightAware ADS-B
Thu 05:27:12 AM 37.6020 -80.9170 78° East 497 572 39,000  Level FlightAware ADS-B
Thu 05:28:02 AM 37.6220 -80.7960 78° East 497 572 39,000  Level FlightAware ADS-B
Thu 05:28:42 AM 37.6380 -80.7000 78° East 497 572 39,000  Level FlightAware ADS-B
Thu 05:29:22 AM 37.6550 -80.6030 77° East 497 572 39,000  Level FlightAware ADS-B
Thu 05:30:02 AM 37.6710 -80.5070 78° East 497 572 39,000  Level FlightAware ADS-B
Thu 05:30:42 AM 37.6870 -80.4100 78° East 497 572 39,000  Level FlightAware ADS-B
Thu 05:31:32 AM 37.7070 -80.2890 78° East 497 572 39,000  Level FlightAware ADS-B
Thu 05:32:12 AM 37.7240 -80.1930 77° East 497 572 39,000  Level FlightAware ADS-B
Thu 05:32:52 AM 37.7400 -80.0960 78° East 497 572 39,000  Level FlightAware ADS-B
Thu 05:33:32 AM 37.7560 -79.9990 78° East 497 572 39,000  Level FlightAware ADS-B
Thu 05:34:12 AM 37.7720 -79.9020 78° East 497 572 39,000 -490 Level FlightAware ADS-B
Thu 05:39:02 AM 38.1070 -78.9590 65° Northeast 35,000 -533 Descending FlightAware ADS-B
Thu 05:41:12 AM 38.2160 -78.5700 70° East 35,000  Level FlightAware ADS-B
Thu 05:41:42 AM 38.2360 -78.4970 71° East 507 583 35,000  Level FlightAware ADS-B
Thu 05:42:27 AM 38.2710 -78.3700 71° East 507 583 35,000 -400 Level FlightAware ADS-B
Thu 05:43:12 AM 38.3100 -78.2270 71° East 504 580 34,400 -847 Descending FlightAware ADS-B
Thu 05:43:52 AM 38.3430 -78.1110 70° East 498 573 33,800 -750 Descending FlightAware ADS-B
Thu 05:44:32 AM 38.3730 -77.9990 71° East 487 560 33,400 -565 Descending FlightAware ADS-B
Thu 05:45:17 AM 38.4050 -77.8820 71° East 482 555 33,000 -282 Descending FlightAware ADS-B
Thu 05:45:57 AM 38.4350 -77.7720 71° East 488 562 33,000  Level FlightAware ADS-B
Thu 05:46:42 AM 38.4670 -77.6490 72° East 489 563 33,000  Level FlightAware ADS-B
Thu 05:47:22 AM 38.4970 -77.5380 71° East 479 551 33,000  Level FlightAware ADS-B
Thu 05:48:02 AM 38.5250 -77.4320 71° East 475 547 33,000  Level FlightAware ADS-B
Thu 05:48:47 AM 38.5570 -77.3150 71° East 479 551 33,000 -212 Level FlightAware ADS-B
Thu 05:49:27 AM 38.5850 -77.2080 71° East 477 549 32,700 -857 Descending FlightAware ADS-B
Thu 05:49:57 AM 38.6050 -77.1310 72° East 460 529 32,000 -1,886 Descending FlightAware ADS-B
Thu 05:50:37 AM 38.6300 -77.0360 71° East 418 481 30,500 -2,850 Descending FlightAware ADS-B
Thu 05:51:17 AM 38.6550 -76.9410 71° East 406 467 28,200 -3,300 Descending FlightAware ADS-B
Thu 05:51:57 AM 38.6790 -76.8500 71° East 411 473 26,100 -2,400 Descending FlightAware ADS-B
Thu 05:52:42 AM 38.7040 -76.7490 72° East 404 465 24,800 -1,800 Descending FlightAware ADS-B
Thu 05:53:17 AM 38.7230 -76.6640 74° East 397 457 23,700 -1,575 Descending FlightAware ADS-B
Thu 05:54:02 AM 38.7390 -76.5880 75° East 392 451 22,700 -1,467 Descending FlightAware ADS-B
Thu 05:54:47 AM 38.7580 -76.4950 75° East 384 442 21,500 -1,765 Descending FlightAware ADS-B
Thu 05:55:27 AM 38.7770 -76.4010 75° East 377 434 20,200 -1,765 Descending FlightAware ADS-B
Thu 05:56:12 AM 38.7970 -76.3050 75° East 369 425 19,000 -1,694 Descending FlightAware ADS-B
Thu 05:56:52 AM 38.8140 -76.2230 75° East 362 417 17,800 -1,725 Descending FlightAware ADS-B
Thu 05:57:32 AM 38.8310 -76.1380 76° East 357 411 16,700 -1,765 Descending FlightAware ADS-B
Thu 05:58:17 AM 38.8500 -76.0470 75° East 352 405 15,300 -1,200 Descending FlightAware ADS-B
Thu 05:58:57 AM 38.8670 -75.9650 75° East 345 397 15,000 -282 Descending FlightAware ADS-B
Thu 05:59:42 AM 38.8850 -75.8760 75° East 347 399 14,900 -988 Descending FlightAware ADS-B
Thu 06:00:22 AM 38.9200 -75.8110 55° Northeast 335 386 13,600 -1,500 Descending FlightAware ADS-B
Thu 06:01:02 AM 38.9680 -75.7660 36° Northeast 332 382 12,900 -918 Descending FlightAware ADS-B
Thu 06:01:47 AM 39.0260 -75.7120 36° Northeast 328 377 12,300 -776 Descending FlightAware ADS-B
Thu 06:02:27 AM 39.0780 -75.6770 28° Northeast 317 365 11,800 -776 Descending FlightAware ADS-B
Thu 06:03:12 AM 39.1430 -75.6690 North 304 350 11,200 -776 Descending FlightAware ADS-B
Thu 06:03:52 AM 39.1990 -75.6630 North 309 356 10,700 -750 Descending FlightAware ADS-B
Thu 06:04:32 AM 39.2570 -75.6570 North 310 357 10,200 -600 Descending FlightAware ADS-B
Thu 06:05:02 AM 39.2980 -75.6410 17° North 301 346 10,000 -400 Descending FlightAware ADS-B
Thu 06:05:17 AM 39.3160 -75.6260 33° Northeast 287 330 9,900 -900 Descending FlightAware ADS-B
Thu 06:05:42 AM 39.3430 -75.6040 32° Northeast 281 323 9,400 -1,309 Descending FlightAware ADS-B
Thu 06:06:12 AM 39.3750 -75.5750 35° Northeast 278 320 8,700 -1,467 Descending FlightAware ADS-B
Thu 06:06:27 AM 39.3910 -75.5580 39° Northeast 278 320 8,300 -1,467 Descending FlightAware ADS-B
Thu 06:06:57 AM 39.4170 -75.5220 47° Northeast 275 316 7,600 -1,309 Descending FlightAware ADS-B
Thu 06:07:22 AM 39.4370 -75.4920 49° Northeast 273 314 7,100 -900 Descending FlightAware ADS-B
Thu 06:07:37 AM 39.4500 -75.4710 51° Northeast 270 311 7,000 -133 Descending FlightAware ADS-B
Thu 06:08:07 AM 39.4800 -75.4450 34° Northeast 264 304 7,000 -343 Level FlightAware ADS-B
Thu 06:08:47 AM 39.5300 -75.4450 360° North 262 302 6,600 -873 Descending FlightAware ADS-B
Thu 06:09:02 AM 39.5490 -75.4450 360° North 263 303 6,200 -800 Descending FlightAware ADS-B
Thu 06:09:32 AM 39.5850 -75.4450 360° North 262 302 6,000 -171 Descending FlightAware ADS-B
Thu 06:10:12 AM 39.6370 -75.4450 360° North 213 245 6,000  Level FlightAware ADS-B
Thu 06:10:22 AM 39.6470 -75.4470 351° North 210 242 6,000  Level FlightAware ADS-B
Thu 06:10:37 AM 39.6570 -75.4570 322° Northwest 205 236 6,000  Level FlightAware ADS-B
Thu 06:10:52 AM 39.6610 -75.4740 287° West 202 232 6,000  Level FlightAware ADS-B
Thu 06:11:22 AM 39.6560 -75.5120 260° West 201 231 6,000 -109 Level FlightAware ADS-B
Thu 06:11:47 AM 39.6510 -75.5400 257° West 197 227 5,900 -655 Descending FlightAware ADS-B
Thu 06:12:17 AM 39.6450 -75.5750 257° West 196 226 5,400 -960 Descending FlightAware ADS-B
Thu 06:12:37 AM 39.6420 -75.5970 260° West 195 224 5,100 -436 Descending FlightAware ADS-B
Thu 06:13:12 AM 39.6610 -75.6270 309° West 202 232 5,000 -92 Descending FlightAware ADS-B
Thu 06:13:42 AM 39.6890 -75.6380 343° North 204 235 5,000 -257 Level FlightAware ADS-B
Thu 06:14:22 AM 39.7190 -75.6520 340° North 200 230 4,700 -600 Descending FlightAware ADS-B
Thu 06:14:32 AM 39.7290 -75.6540 351° North 201 231 4,500 -1,000 Descending FlightAware ADS-B
Thu 06:14:52 AM 39.7440 -75.6460 22° Northeast 201 231 4,200 -667 Descending FlightAware ADS-B
Thu 06:15:17 AM 39.7660 -75.6310 28° Northeast 205 236 4,000 -218 Descending FlightAware ADS-B
Thu 06:15:47 AM 39.7860 -75.6050 45° Northeast 204 235 4,000  Level FlightAware ADS-B
Thu 06:16:12 AM 39.7980 -75.5780 60° Northeast 206 237 4,000  Level FlightAware ADS-B
Thu 06:16:42 AM 39.8080 -75.5440 69° East 202 232 4,000 -300 Level FlightAware ADS-B
Thu 06:17:12 AM 39.8140 -75.5090 77° East 209 241 3,700 -873 Descending FlightAware ADS-B
Thu 06:17:37 AM 39.8210 -75.4760 75° East 210 242 3,200 -1,200 Descending FlightAware ADS-B
Thu 06:18:07 AM 39.8280 -75.4400 76° East 200 230 2,600 -1,200 Descending FlightAware ADS-B
Thu 06:18:32 AM 39.8330 -75.4110 77° East 186 214 2,100 -982 Descending FlightAware ADS-B
Thu 06:19:02 AM 39.8390 -75.3830 74° East 150 173 1,700 -800 Descending FlightAware ADS-B
Thu 06:19:32 AM 39.8440 -75.3590 75° East 131 151 1,300 -655 Descending FlightAware ADS-B
Thu 06:19:57 AM 39.8480 -75.3400 75° East 125 144 1,100 -480 Descending FlightAware ADS-B

Login

Don't have an account? Register now (free) for customized features, flight alerts, and more!